Time;durP1;ratioP1;P1;durP2;ratioP2;P2;SDS_P1;SDS_P2;PMS_P1;PMS_P2;Temp;Humidity;BMP_temperature;BMP_pressure;BME280_temperature;BME280_humidity;BME280_pressure;Samples;Min_cycle;Max_cycle;Signal;HPM_P1;HPM_P2
2020/12/12 00:00:44;;;;;;;;;20.70;16.60;;;;;1.54;60.64;100726.02;483194;113;381050;-72
2020/12/12 00:01:49;;;;;;;;;15.30;13.80;;;;;1.59;60.52;100733.73;483259;113;380786;-71
2020/12/12 00:02:53;;;;;;;;;25.60;19.10;;;;;1.59;60.52;100733.73;483266;113;382717;-71
2020/12/12 00:03:57;;;;;;;;;19.00;13.70;;;;;1.62;60.05;100728.37;483305;113;378637;-72
2020/12/12 00:05:01;;;;;;;;;18.00;15.30;;;;;1.62;59.89;100719.65;483301;113;381146;-72
2020/12/12 00:06:05;;;;;;;;;18.40;13.40;;;;;1.62;59.96;100723.13;482954;113;379668;-71
2020/12/12 00:07:09;;;;;;;;;20.50;17.40;;;;;1.59;59.77;100728.48;483207;113;381040;-71
2020/12/12 00:08:15;;;;;;;;;16.30;15.50;;;;;1.59;59.77;100728.48;483358;113;380434;-71
2020/12/12 00:09:19;;;;;;;;;17.80;15.90;;;;;1.59;59.75;100728.48;482647;113;388754;-72
2020/12/12 00:10:26;;;;;;;;;22.30;19.50;;;;;1.56;59.91;100724.19;482842;113;387258;-70
2020/12/12 00:11:30;;;;;;;;;20.90;18.40;;;;;1.57;60.18;100725.91;482695;113;383226;-69
2020/12/12 00:12:35;;;;;;;;;18.00;15.60;;;;;1.57;60.18;100725.91;482962;113;381301;-71
2020/12/12 00:13:39;;;;;;;;;18.80;16.10;;;;;1.52;59.95;100721.75;482949;113;379798;-69
2020/12/12 00:14:43;;;;;;;;;19.50;14.40;;;;;1.52;59.95;100721.75;483010;113;379079;-72
2020/12/12 00:15:47;;;;;;;;;15.10;12.60;;;;;1.45;59.95;100722.88;483327;113;378451;-71
2020/12/12 00:16:52;;;;;;;;;15.80;14.10;;;;;1.45;60.62;100726.36;483074;113;379835;-71
2020/12/12 00:17:56;;;;;;;;;17.60;14.10;;;;;1.43;60.44;100727.33;482998;113;386009;-71
2020/12/12 00:19:00;;;;;;;;;9.60;7.60;;;;;1.43;60.46;100722.09;483472;113;373767;-72
2020/12/12 00:20:04;;;;;;;;;17.00;15.40;;;;;1.43;60.46;100722.09;483295;113;379820;-70
2020/12/12 00:21:08;;;;;;;;;21.20;14.10;;;;;1.47;60.68;100713.19;483260;113;380968;-71
2020/12/12 00:22:12;;;;;;;;;23.30;18.60;;;;;1.47;60.68;100713.19;483320;113;380627;-71
2020/12/12 00:23:16;;;;;;;;;20.10;14.60;;;;;1.47;60.50;100713.19;483285;113;379924;-70
2020/12/12 00:24:20;;;;;;;;;14.90;13.50;;;;;1.50;60.12;100721.80;483265;113;381882;-71
2020/12/12 00:25:24;;;;;;;;;15.70;13.10;;;;;1.50;60.12;100721.80;483349;113;378958;-71
2020/12/12 00:26:28;;;;;;;;;17.40;16.70;;;;;1.45;60.22;100710.64;482962;113;382164;-71
2020/12/12 00:27:32;;;;;;;;;16.90;15.10;;;;;1.45;60.22;100710.64;483015;113;378690;-71
2020/12/12 00:28:36;;;;;;;;;19.60;15.50;;;;;1.46;60.37;100711.50;483242;113;382896;-72
2020/12/12 00:29:40;;;;;;;;;18.10;14.40;;;;;1.46;60.37;100711.50;482866;113;380619;-73
2020/12/12 00:30:44;;;;;;;;;20.80;15.20;;;;;1.52;60.08;100714.75;482593;113;379316;-72
2020/12/12 00:31:54;;;;;;;;;18.50;14.50;;;;;1.52;60.08;100714.75;483274;113;380006;-71
2020/12/12 00:32:58;;;;;;;;;16.30;14.50;;;;;1.52;59.83;100716.52;482313;113;380182;-72
2020/12/12 00:34:03;;;;;;;;;22.20;16.70;;;;;1.49;60.22;100706.14;483287;113;386307;-72
2020/12/12 00:35:07;;;;;;;;;13.30;11.80;;;;;1.47;60.02;100711.42;482266;113;383495;-72
2020/12/12 00:36:12;;;;;;;;;15.60;13.60;;;;;1.41;60.44;100702.92;483021;113;378620;-72
2020/12/12 00:37:18;;;;;;;;;19.10;16.50;;;;;1.43;60.19;100706.37;483379;113;380800;-74
2020/12/12 00:38:22;;;;;;;;;14.60;13.00;;;;;1.45;60.00;100699.30;482749;113;382047;-72
2020/12/12 00:39:26;;;;;;;;;18.70;15.40;;;;;1.48;60.07;100704.42;483302;113;380775;-73
2020/12/12 00:40:31;;;;;;;;;16.90;12.20;;;;;1.45;59.30;100700.16;482755;113;385681;-75
2020/12/12 00:41:36;;;;;;;;;16.30;14.50;;;;;1.48;59.96;100704.42;483332;113;379178;-73
2020/12/12 00:42:41;;;;;;;;;15.40;7.40;;;;;1.47;59.58;100702.70;482829;113;378890;-72
2020/12/12 00:43:44;;;;;;;;;18.90;16.30;;;;;1.47;59.77;100700.08;483007;113;386167;-73
2020/12/12 00:44:49;;;;;;;;;22.20;17.10;;;;;1.46;59.87;100706.25;483193;113;383495;-74
2020/12/12 00:45:52;;;;;;;;;20.50;16.70;;;;;1.46;59.87;100706.25;483049;113;380885;-73
2020/12/12 00:46:56;;;;;;;;;14.20;9.30;;;;;1.36;59.92;100702.25;474643;115;377999;-72
2020/12/12 00:48:02;;;;;;;;;15.30;14.10;;;;;1.42;60.04;100697.64;474478;115;378360;-72
2020/12/12 00:49:07;;;;;;;;;24.60;16.80;;;;;1.45;59.88;100708.02;482679;113;380604;-72
2020/12/12 00:50:12;;;;;;;;;18.30;16.70;;;;;1.45;59.88;100708.02;482735;113;381923;-72
2020/12/12 00:51:16;;;;;;;;;10.10;9.10;;;;;1.37;59.87;100706.59;483320;113;378789;-73
2020/12/12 00:52:19;;;;;;;;;9.50;6.20;;;;;1.39;59.86;100699.52;483381;113;383424;-74
2020/12/12 00:53:24;;;;;;;;;25.00;17.60;;;;;1.42;59.55;100709.89;483191;113;386823;-72
2020/12/12 00:54:28;;;;;;;;;17.70;13.90;;;;;1.44;59.35;100700.19;483058;113;379690;-73
2020/12/12 00:55:32;;;;;;;;;12.10;10.30;;;;;1.41;59.39;100703.78;483083;113;376836;-72
2020/12/12 00:56:38;;;;;;;;;16.70;14.80;;;;;1.41;59.39;100703.78;482258;113;380379;-73
2020/12/12 00:57:42;;;;;;;;;18.00;16.50;;;;;1.49;59.93;100700.90;483243;113;386133;-73
2020/12/12 00:58:46;;;;;;;;;17.90;15.20;;;;;1.50;59.57;100698.20;483319;113;379757;-74
2020/12/12 00:59:50;;;;;;;;;18.50;15.60;;;;;1.50;59.57;100698.20;483186;113;379053;-73
2020/12/12 01:00:54;;;;;;;;;9.40;5.80;;;;;1.48;59.52;100693.94;483408;113;374926;-73
2020/12/12 01:01:58;;;;;;;;;16.80;14.40;;;;;1.53;59.32;100699.88;483290;113;380441;-73
2020/12/12 01:03:02;;;;;;;;;19.50;15.80;;;;;1.53;59.32;100699.88;483314;113;380993;-73
2020/12/12 01:04:06;;;;;;;;;10.50;6.40;;;;;1.53;59.58;100687.61;483146;113;375986;-72
2020/12/12 01:05:10;;;;;;;;;16.20;13.00;;;;;1.48;59.83;100683.45;483413;113;378179;-73
2020/12/12 01:06:15;;;;;;;;;20.20;14.30;;;;;1.50;59.50;100686.89;483074;113;379465;-74
2020/12/12 01:07:22;;;;;;;;;19.80;16.40;;;;;1.43;59.96;100690.64;483090;113;382698;-73
2020/12/12 01:08:26;;;;;;;;;16.40;14.50;;;;;1.44;60.19;100693.19;483049;113;378352;-73
2020/12/12 01:09:30;;;;;;;;;17.90;15.40;;;;;1.46;60.04;100693.15;483307;113;382352;-72
2020/12/12 01:10:35;;;;;;;;;16.40;13.00;;;;;1.46;60.04;100693.15;483059;113;377387;-73
2020/12/12 01:11:39;;;;;;;;;21.00;16.20;;;;;1.48;59.58;100686.08;483281;113;382278;-73
2020/12/12 01:12:43;;;;;;;;;15.90;14.80;;;;;1.42;60.19;100684.55;483272;113;380607;-72
2020/12/12 01:13:46;;;;;;;;;21.10;16.70;;;;;1.49;59.81;100685.17;483301;113;380022;-72
2020/12/12 01:14:50;;;;;;;;;22.00;18.50;;;;;1.49;59.81;100685.17;483205;113;381321;-72
2020/12/12 01:15:54;;;;;;;;;26.80;21.40;;;;;1.56;59.97;100678.80;483237;113;383561;-72
2020/12/12 01:17:00;;;;;;;;;18.50;13.60;;;;;1.56;59.97;100678.80;483304;113;378981;-71
2020/12/12 01:18:03;;;;;;;;;6.50;4.70;;;;;1.50;60.19;100692.13;482894;113;380987;-71
2020/12/12 01:19:07;;;;;;;;;16.60;13.90;;;;;1.49;60.02;100687.80;483330;113;379118;-71
2020/12/12 01:20:12;;;;;;;;;24.20;16.90;;;;;1.44;60.12;100689.71;482977;113;382940;-72
2020/12/12 01:21:16;;;;;;;;;10.50;6.80;;;;;1.36;59.92;100692.62;483170;113;374112;-72
2020/12/12 01:22:20;;;;;;;;;16.10;13.10;;;;;1.39;59.95;100695.14;483013;113;380037;-74
2020/12/12 01:23:24;;;;;;;;;12.10;12.10;;;;;1.38;60.23;100692.56;483357;113;376873;-73
2020/12/12 01:24:28;;;;;;;;;19.60;15.90;;;;;1.38;60.23;100692.56;483333;113;380957;-73
2020/12/12 01:25:32;;;;;;;;;15.10;11.90;;;;;1.41;60.22;100690.69;483067;113;378439;-72
2020/12/12 01:26:37;;;;;;;;;16.40;12.60;;;;;1.31;60.42;100686.69;482758;113;378338;-74
2020/12/12 01:27:42;;;;;;;;;19.00;13.50;;;;;1.36;60.51;100689.16;483346;113;378796;-73
2020/12/12 01:28:45;;;;;;;;;17.50;12.90;;;;;1.39;60.47;100684.66;483355;113;378735;-73
2020/12/12 01:29:49;;;;;;;;;14.10;13.20;;;;;1.39;60.47;100684.66;483318;113;377504;-73
2020/12/12 01:30:53;;;;;;;;;20.70;16.50;;;;;1.44;60.42;100680.09;483332;113;380893;-74
2020/12/12 01:31:57;;;;;;;;;14.30;12.50;;;;;1.48;60.17;100680.83;483269;113;385566;-72
2020/12/12 01:33:01;;;;;;;;;16.40;12.60;;;;;1.52;59.71;100678.05;483353;113;379086;-73
2020/12/12 01:34:05;;;;;;;;;16.09;14.55;;;;;1.54;59.88;100681.46;483272;113;383642;-72
2020/12/12 01:35:09;;;;;;;;;17.30;15.30;;;;;1.51;60.08;100678.09;483372;113;383008;-73
2020/12/12 01:36:14;;;;;;;;;17.70;12.40;;;;;1.51;60.22;100678.09;482861;113;379669;-72
2020/12/12 01:37:18;;;;;;;;;23.50;15.10;;;;;1.56;59.96;100668.31;483358;113;380757;-72
2020/12/12 01:38:22;;;;;;;;;16.50;14.30;;;;;1.56;59.96;100668.31;483298;113;379642;-72
2020/12/12 01:39:26;;;;;;;;;15.50;11.40;;;;;1.57;59.77;100670.86;483327;113;379665;-74
2020/12/12 01:40:30;;;;;;;;;17.90;14.80;;;;;1.58;59.76;100669.09;483062;113;379565;-72
2020/12/12 01:41:34;;;;;;;;;15.40;13.40;;;;;1.50;59.99;100666.75;483342;113;378193;-71
2020/12/12 01:42:38;;;;;;;;;15.70;12.80;;;;;1.54;59.96;100672.73;482891;113;382496;-71
2020/12/12 01:43:42;;;;;;;;;14.30;11.90;;;;;1.53;60.12;100665.81;483311;113;378326;-71
2020/12/12 01:44:46;;;;;;;;;13.30;12.00;;;;;1.52;60.01;100667.57;483620;113;384615;-73
2020/12/12 01:45:50;;;;;;;;;19.90;14.30;;;;;1.52;60.01;100667.57;483336;113;379570;-74
2020/12/12 01:46:54;;;;;;;;;19.90;16.50;;;;;1.54;59.76;100664.88;483298;113;381160;-71
2020/12/12 01:47:58;;;;;;;;;15.90;13.70;;;;;1.54;59.76;100664.88;483319;113;383785;-71
2020/12/12 01:49:02;;;;;;;;;13.10;10.80;;;;;1.52;59.80;100664.09;483315;113;379327;-71
2020/12/12 01:50:06;;;;;;;;;18.80;16.10;;;;;1.53;59.59;100658.77;483036;113;381544;-72
2020/12/12 01:51:10;;;;;;;;;23.90;14.60;;;;;1.52;59.70;100664.09;483291;113;379813;-71
2020/12/12 01:52:14;;;;;;;;;17.20;10.40;;;;;1.56;59.85;100660.45;482687;113;377671;-72
2020/12/12 01:53:19;;;;;;;;;12.50;11.00;;;;;1.58;59.70;100667.34;482607;113;383342;-71
2020/12/12 01:54:23;;;;;;;;;15.60;13.90;;;;;1.55;59.81;100658.73;483071;113;377153;-71
2020/12/12 01:55:26;;;;;;;;;22.30;16.70;;;;;1.54;59.58;100654.39;483300;113;381555;-71
2020/12/12 01:56:31;;;;;;;;;19.90;14.60;;;;;1.54;59.58;100654.39;482322;113;379187;-70
2020/12/12 01:57:35;;;;;;;;;11.30;9.70;;;;;1.45;60.11;100660.84;483466;113;378448;-72
2020/12/12 01:58:39;;;;;;;;;16.70;14.10;;;;;1.45;60.11;100660.84;483034;113;379534;-72
2020/12/12 01:59:43;;;;;;;;;18.20;13.30;;;;;1.53;60.26;100658.77;483349;113;378247;-70
2020/12/12 02:00:48;;;;;;;;;16.00;14.80;;;;;1.53;60.26;100658.77;483082;113;380200;-72
2020/12/12 02:01:54;;;;;;;;;19.90;15.60;;;;;1.52;60.47;100648.36;483048;113;379170;-71
2020/12/12 02:02:58;;;;;;;;;18.00;14.80;;;;;1.54;60.04;100657.87;482765;113;379220;-71
2020/12/12 02:04:02;;;;;;;;;16.30;11.30;;;;;1.56;60.09;100649.97;483317;113;379591;-71
2020/12/12 02:05:06;;;;;;;;;18.40;14.90;;;;;1.55;60.66;100650.87;483317;113;379140;-71
2020/12/12 02:06:13;;;;;;;;;16.20;16.20;;;;;1.54;60.49;100654.39;482973;113;380009;-73
2020/12/12 02:07:17;;;;;;;;;19.20;13.80;;;;;1.53;60.49;100664.02;482716;113;380514;-72
2020/12/12 02:08:21;;;;;;;;;18.00;13.60;;;;;1.49;60.57;100656.34;483299;113;385902;-70
2020/12/12 02:09:25;;;;;;;;;16.40;14.70;;;;;1.49;60.57;100656.34;483227;113;377914;-69
2020/12/12 02:10:29;;;;;;;;;22.10;14.80;;;;;1.57;60.85;100655.13;483037;113;379933;-69
2020/12/12 02:11:33;;;;;;;;;14.30;10.90;;;;;1.58;60.46;100653.38;483422;113;376868;-70
2020/12/12 02:12:37;;;;;;;;;21.80;16.70;;;;;1.64;60.64;100647.89;483162;113;381953;-72
2020/12/12 02:13:46;;;;;;;;;21.70;16.20;;;;;1.64;60.43;100658.38;483256;113;386207;-72
2020/12/12 02:14:50;;;;;;;;;19.40;16.80;;;;;1.59;60.32;100658.57;482681;113;381864;-71
2020/12/12 02:15:53;;;;;;;;;20.30;17.30;;;;;1.61;60.34;100658.50;483336;113;382175;-71
2020/12/12 02:16:59;;;;;;;;;22.20;20.20;;;;;1.60;60.06;100656.78;482811;113;384090;-72
2020/12/12 02:18:03;;;;;;;;;23.20;18.10;;;;;1.60;60.58;100657.64;482722;113;384354;-71
2020/12/12 02:19:07;;;;;;;;;20.60;16.10;;;;;1.61;60.54;100655.88;483205;113;389043;-71
2020/12/12 02:20:11;;;;;;;;;17.60;14.80;;;;;1.56;60.68;100655.21;483120;113;378191;-70
2020/12/12 02:21:15;;;;;;;;;22.40;19.40;;;;;1.50;61.23;100652.83;483241;113;382583;-71
2020/12/12 02:22:19;;;;;;;;;22.10;17.00;;;;;1.48;61.38;100655.48;482912;113;381437;-69
2020/12/12 02:23:23;;;;;;;;;18.50;14.00;;;;;1.48;61.38;100655.48;483337;113;378799;-70
2020/12/12 02:24:29;;;;;;;;;20.00;16.60;;;;;1.54;61.29;100651.77;483262;113;380699;-71
2020/12/12 02:25:33;;;;;;;;;14.10;12.50;;;;;1.57;61.02;100651.66;482844;113;378370;-70
2020/12/12 02:26:37;;;;;;;;;16.60;14.70;;;;;1.59;61.01;100652.47;483055;113;383353;-69
2020/12/12 02:27:41;;;;;;;;;16.70;13.90;;;;;1.59;61.01;100652.47;483311;113;379407;-71
2020/12/12 02:28:47;;;;;;;;;20.73;14.64;;;;;1.59;61.12;100652.47;482842;113;384777;-71
2020/12/12 02:29:52;;;;;;;;;20.30;12.60;;;;;1.64;60.80;100653.14;482847;113;378780;-70
2020/12/12 02:30:56;;;;;;;;;15.30;15.30;;;;;1.67;60.79;100646.91;482819;113;378893;-72
2020/12/12 02:32:00;;;;;;;;;19.70;16.40;;;;;1.70;60.78;100646.80;483343;113;379140;-73
2020/12/12 02:33:04;;;;;;;;;19.40;15.20;;;;;1.69;60.67;100645.11;482965;113;379735;-72
2020/12/12 02:34:08;;;;;;;;;14.00;11.00;;;;;1.55;61.37;100653.48;483362;113;376955;-71
2020/12/12 02:35:11;;;;;;;;;21.90;16.40;;;;;1.55;61.37;100653.48;483255;113;382040;-71
2020/12/12 02:36:15;;;;;;;;;16.70;10.60;;;;;1.55;61.54;100648.25;482664;113;385250;-71
2020/12/12 02:37:19;;;;;;;;;26.00;16.80;;;;;1.55;61.54;100648.25;483197;113;381185;-71
2020/12/12 02:38:23;;;;;;;;;23.00;17.90;;;;;1.60;61.54;100646.30;483236;113;380555;-72
2020/12/12 02:39:27;;;;;;;;;18.80;12.50;;;;;1.55;61.33;100643.01;484050;112;379656;-72
2020/12/12 02:40:31;;;;;;;;;22.20;16.60;;;;;1.55;61.33;100643.01;487793;112;382348;-70
2020/12/12 02:41:35;;;;;;;;;20.60;13.70;;;;;1.58;61.41;100643.75;488071;112;379656;-70
2020/12/12 02:42:39;;;;;;;;;18.70;14.50;;;;;1.56;61.01;100639.48;488097;112;378814;-71
2020/12/12 02:43:43;;;;;;;;;25.70;15.40;;;;;1.58;60.99;100629.78;488018;112;386895;-72
2020/12/12 02:44:52;;;;;;;;;20.10;15.20;;;;;1.53;61.33;100629.11;488119;111;377508;-71
2020/12/12 02:45:56;;;;;;;;;18.10;14.50;;;;;1.53;61.50;100629.11;487557;112;382579;-70
2020/12/12 02:47:00;;;;;;;;;24.50;18.20;;;;;1.59;61.13;100631.50;488003;112;383471;-70
2020/12/12 02:48:04;;;;;;;;;19.60;14.50;;;;;1.59;61.13;100631.50;488132;112;379485;-70
2020/12/12 02:49:07;;;;;;;;;25.90;17.50;;;;;1.57;61.50;100634.16;488049;112;382607;-71
2020/12/12 02:50:13;;;;;;;;;15.90;12.80;;;;;1.57;61.50;100634.16;487817;112;378834;-69
2020/12/12 02:51:17;;;;;;;;;21.80;18.00;;;;;1.55;61.41;100627.28;487337;112;387079;-70
2020/12/12 02:52:21;;;;;;;;;23.90;17.10;;;;;1.55;61.41;100627.28;488116;112;381712;-69
2020/12/12 02:53:25;;;;;;;;;15.80;12.40;;;;;1.57;61.49;100625.44;488068;112;380180;-70
2020/12/12 02:54:29;;;;;;;;;19.70;15.70;;;;;1.58;61.20;100627.16;488082;112;377277;-70
2020/12/12 02:55:33;;;;;;;;;20.10;14.60;;;;;1.56;61.49;100615.89;487848;112;380966;-69
2020/12/12 02:56:37;;;;;;;;;18.70;16.40;;;;;1.56;61.49;100615.89;487441;112;381382;-71
2020/12/12 02:57:41;;;;;;;;;14.20;12.70;;;;;1.53;61.69;100613.39;488169;112;378113;-72
2020/12/12 02:58:45;;;;;;;;;20.60;17.40;;;;;1.57;61.33;100628.06;487668;112;380607;-70
2020/12/12 02:59:49;;;;;;;;;19.70;18.20;;;;;1.59;61.02;100624.49;487606;112;386630;-70
2020/12/12 03:00:53;;;;;;;;;20.50;16.00;;;;;1.60;61.05;100618.31;487964;112;389521;-70
2020/12/12 03:01:57;;;;;;;;;18.60;13.80;;;;;1.60;61.05;100618.31;488148;112;377745;-71
2020/12/12 03:03:01;;;;;;;;;17.90;15.90;;;;;1.64;61.24;100621.68;488080;112;380624;-71
2020/12/12 03:04:04;;;;;;;;;15.50;12.90;;;;;1.69;61.27;100619.75;488153;112;378807;-70
2020/12/12 03:05:08;;;;;;;;;20.30;17.40;;;;;1.63;62.15;100625.20;487601;112;386832;-70
2020/12/12 03:06:13;;;;;;;;;18.80;15.60;;;;;1.63;62.15;100625.20;487836;112;380286;-71
2020/12/12 03:07:18;;;;;;;;;23.90;16.80;;;;;1.67;61.69;100624.18;487571;112;384807;-69
2020/12/12 03:08:21;;;;;;;;;15.90;14.10;;;;;1.70;61.40;100618.81;487913;112;378452;-70
2020/12/12 03:09:25;;;;;;;;;20.60;15.60;;;;;1.70;61.40;100618.81;487720;112;379034;-70
2020/12/12 03:10:31;;;;;;;;;16.10;16.10;;;;;1.71;61.59;100617.91;487544;111;378631;-70
2020/12/12 03:11:35;;;;;;;;;22.50;20.00;;;;;1.76;61.76;100617.71;487945;112;390340;-72
2020/12/12 03:12:39;;;;;;;;;16.50;14.70;;;;;1.76;61.76;100617.71;488094;112;377835;-72
2020/12/12 03:13:43;;;;;;;;;23.00;20.30;;;;;1.64;61.64;100616.44;487735;112;383309;-72
2020/12/12 03:14:47;;;;;;;;;28.20;22.60;;;;;1.63;61.87;100619.13;488035;112;381956;-70
2020/12/12 03:15:51;;;;;;;;;20.10;18.70;;;;;1.66;61.58;100617.22;488020;112;383078;-70
2020/12/12 03:16:55;;;;;;;;;22.00;17.50;;;;;1.67;61.57;100626.80;487770;112;382504;-72
2020/12/12 03:17:59;;;;;;;;;21.40;16.50;;;;;1.68;61.74;100615.41;488060;112;381521;-70
2020/12/12 03:19:03;;;;;;;;;16.40;12.90;;;;;1.68;61.74;100615.41;488082;112;378719;-69
2020/12/12 03:20:07;;;;;;;;;22.20;19.40;;;;;1.67;61.39;100618.94;487730;112;382863;-69
2020/12/12 03:21:11;;;;;;;;;19.30;16.10;;;;;1.62;61.79;100615.66;488142;112;381467;-71
2020/12/12 03:22:15;;;;;;;;;24.50;18.90;;;;;1.63;61.85;100624.38;487517;112;383044;-70
2020/12/12 03:23:19;;;;;;;;;20.60;17.20;;;;;1.63;61.85;100624.38;487793;112;382272;-70
2020/12/12 03:24:23;;;;;;;;;21.60;13.20;;;;;1.60;61.65;100610.45;488149;112;379694;-70
2020/12/12 03:25:27;;;;;;;;;20.10;15.50;;;;;1.64;61.15;100616.44;487962;112;387673;-71
2020/12/12 03:26:31;;;;;;;;;18.50;15.40;;;;;1.64;61.15;100616.44;487857;112;379790;-69
2020/12/12 03:27:35;;;;;;;;;19.30;17.30;;;;;1.67;61.63;100621.56;488070;112;381934;-70
2020/12/12 03:28:39;;;;;;;;;21.00;17.20;;;;;1.67;61.63;100621.56;487993;112;386714;-72
2020/12/12 03:29:43;;;;;;;;;23.40;16.40;;;;;1.69;61.78;100616.27;488031;112;381313;-70
2020/12/12 03:30:47;;;;;;;;;17.90;13.50;;;;;1.62;61.39;100610.41;487833;112;379524;-70
2020/12/12 03:31:51;;;;;;;;;23.50;18.80;;;;;1.62;61.39;100610.41;488025;112;387416;-70
2020/12/12 03:32:55;;;;;;;;;21.70;17.70;;;;;1.63;61.31;100611.27;487577;112;382100;-69
2020/12/12 03:33:59;;;;;;;;;19.70;16.30;;;;;1.65;61.29;100612.91;487674;112;380510;-70
2020/12/12 03:35:03;;;;;;;;;19.00;16.60;;;;;1.58;61.21;100603.57;487991;112;381810;-69
2020/12/12 03:36:07;;;;;;;;;15.30;14.50;;;;;1.58;61.15;100606.19;488180;112;376620;-69
2020/12/12 03:37:11;;;;;;;;;20.30;17.30;;;;;1.57;61.11;100612.34;488069;112;379765;-72
2020/12/12 03:38:15;;;;;;;;;18.60;15.70;;;;;1.58;61.28;100614.91;487747;112;380377;-72
2020/12/12 03:39:19;;;;;;;;;21.60;17.40;;;;;1.59;61.42;100613.15;488018;112;382821;-71
2020/12/12 03:40:23;;;;;;;;;20.30;18.10;;;;;1.59;60.95;100610.53;487310;112;382222;-71
2020/12/12 03:41:27;;;;;;;;;21.10;18.80;;;;;1.56;61.37;100619.34;487604;112;382634;-70
2020/12/12 03:42:31;;;;;;;;;20.10;17.70;;;;;1.56;61.37;100619.34;478079;114;382277;-71
2020/12/12 03:43:35;;;;;;;;;19.30;13.30;;;;;1.60;61.54;100620.94;480004;113;380535;-71
2020/12/12 03:44:39;;;;;;;;;23.10;21.40;;;;;1.64;61.09;100629.54;487616;112;385043;-70
2020/12/12 03:45:42;;;;;;;;;19.30;18.40;;;;;1.65;60.87;100630.40;477617;114;383484;-73
2020/12/12 03:46:47;;;;;;;;;20.90;16.40;;;;;1.58;60.52;100642.89;480248;113;381934;-72
2020/12/12 03:47:50;;;;;;;;;12.80;10.60;;;;;1.58;60.52;100642.89;488142;112;375164;-72
2020/12/12 03:48:54;;;;;;;;;18.60;16.00;;;;;1.58;60.82;100632.41;487647;112;380562;-71
2020/12/12 03:49:58;;;;;;;;;18.40;15.10;;;;;1.58;60.82;100632.41;488085;112;379901;-72
2020/12/12 03:51:02;;;;;;;;;19.30;16.00;;;;;1.59;60.54;100628.88;488115;112;379159;-72
2020/12/12 03:52:06;;;;;;;;;14.70;13.20;;;;;1.59;60.54;100628.88;488225;112;377217;-72
2020/12/12 03:53:10;;;;;;;;;21.10;18.70;;;;;1.57;60.47;100635.92;487785;112;380091;-73
2020/12/12 03:54:14;;;;;;;;;4.40;2.80;;;;;1.56;60.58;100626.38;488259;112;373711;-71
2020/12/12 03:55:18;;;;;;;;;22.50;14.30;;;;;1.54;60.51;100636.91;487617;112;380745;-71
2020/12/12 03:56:22;;;;;;;;;18.80;16.50;;;;;1.54;60.51;100636.91;487384;112;380982;-71
2020/12/12 03:57:26;;;;;;;;;15.60;14.40;;;;;1.60;60.69;100638.42;488173;112;385501;-73
2020/12/12 03:58:30;;;;;;;;;13.40;13.00;;;;;1.60;60.69;100638.42;488117;112;384657;-73
2020/12/12 03:59:34;;;;;;;;;15.60;12.00;;;;;1.58;60.38;100621.92;488102;112;382725;-73
2020/12/12 04:00:39;;;;;;;;;15.40;11.70;;;;;1.59;60.29;100634.13;487899;112;378428;-72
2020/12/12 04:01:43;;;;;;;;;16.80;14.20;;;;;1.56;60.19;100634.23;487857;112;377912;-72
2020/12/12 04:02:47;;;;;;;;;17.90;14.80;;;;;1.56;60.19;100634.23;488011;112;387516;-72
2020/12/12 04:03:51;;;;;;;;;17.10;13.70;;;;;1.57;60.41;100635.92;488134;112;379846;-72
2020/12/12 04:04:55;;;;;;;;;18.60;13.70;;;;;1.57;60.41;100635.92;488180;112;380088;-71
2020/12/12 04:05:59;;;;;;;;;15.20;13.20;;;;;1.60;60.99;100625.32;488127;112;378799;-73
2020/12/12 04:07:04;;;;;;;;;16.20;14.90;;;;;1.60;60.99;100625.32;488115;112;380787;-71
2020/12/12 04:08:08;;;;;;;;;15.60;13.40;;;;;1.61;60.88;100632.28;487802;112;380013;-71
2020/12/12 04:09:12;;;;;;;;;15.20;12.50;;;;;1.58;61.00;100635.02;488099;112;384521;-72
2020/12/12 04:10:17;;;;;;;;;17.00;15.60;;;;;1.58;61.00;100635.02;487646;112;380098;-72
2020/12/12 04:11:21;;;;;;;;;16.70;12.90;;;;;1.58;60.81;100621.92;488141;112;379485;-73
2020/12/12 04:12:25;;;;;;;;;14.90;13.80;;;;;1.61;60.55;100616.55;488078;112;384701;-71
2020/12/12 04:13:29;;;;;;;;;19.20;12.60;;;;;1.58;60.71;100632.41;488066;112;385969;-71
2020/12/12 04:14:33;;;;;;;;;17.90;15.70;;;;;1.59;60.76;100613.15;488089;112;380702;-71
2020/12/12 04:15:37;;;;;;;;;17.40;13.80;;;;;1.46;61.00;100617.15;488098;112;380087;-71
2020/12/12 04:16:42;;;;;;;;;16.60;13.20;;;;;1.46;61.00;100617.15;487563;111;379143;-71
2020/12/12 04:17:46;;;;;;;;;18.30;15.30;;;;;1.43;61.25;100622.51;488120;112;380093;-71
2020/12/12 04:18:50;;;;;;;;;13.00;11.90;;;;;1.50;60.57;100629.23;488076;112;378027;-71
2020/12/12 04:19:54;;;;;;;;;17.80;16.00;;;;;1.50;60.57;100629.23;488044;112;378809;-70
2020/12/12 04:20:58;;;;;;;;;17.20;15.00;;;;;1.48;60.35;100621.41;488062;112;379297;-72
2020/12/12 04:22:02;;;;;;;;;14.70;13.00;;;;;1.48;60.35;100621.41;488150;112;378485;-71
2020/12/12 04:23:06;;;;;;;;;18.70;16.40;;;;;1.55;60.99;100615.03;477877;114;385995;-71
2020/12/12 04:24:10;;;;;;;;;34.80;27.00;;;;;1.55;60.99;100615.03;480341;113;389224;-71
2020/12/12 04:25:14;;;;;;;;;42.50;30.60;;;;;1.58;60.93;100611.43;487404;112;393316;-73
2020/12/12 04:26:18;;;;;;;;;10.40;8.00;;;;;1.58;60.47;100611.43;487444;112;375933;-71
2020/12/12 04:27:22;;;;;;;;;21.10;15.00;;;;;1.62;60.95;100612.17;488101;112;386522;-71
2020/12/12 04:28:26;;;;;;;;;16.50;12.70;;;;;1.62;60.95;100612.17;488160;112;378353;-70
2020/12/12 04:29:29;;;;;;;;;20.60;13.70;;;;;1.49;61.22;100607.41;488108;112;379488;-71
2020/12/12 04:30:34;;;;;;;;;21.80;17.90;;;;;1.53;61.31;100603.73;487696;112;387392;-70
2020/12/12 04:31:38;;;;;;;;;21.50;15.50;;;;;1.55;60.81;100601.92;488121;112;380306;-72
2020/12/12 04:32:42;;;;;;;;;16.90;11.70;;;;;1.57;60.37;100601.84;488084;112;381358;-73
2020/12/12 04:33:46;;;;;;;;;20.60;17.60;;;;;1.59;60.54;100606.14;488087;112;385631;-72
2020/12/12 04:34:50;;;;;;;;;17.60;15.80;;;;;1.59;61.41;100602.67;488038;112;386856;-73
2020/12/12 04:35:54;;;;;;;;;16.20;15.10;;;;;1.60;61.24;100610.45;488116;112;378593;-73
2020/12/12 04:36:58;;;;;;;;;15.50;12.70;;;;;1.58;60.58;100598.33;488108;112;378281;-72
2020/12/12 04:38:02;;;;;;;;;20.50;14.50;;;;;1.58;60.58;100598.33;487865;112;379896;-71
2020/12/12 04:39:06;;;;;;;;;14.40;11.80;;;;;1.52;60.84;100593.33;488111;112;385183;-72
2020/12/12 04:40:10;;;;;;;;;17.10;14.30;;;;;1.52;60.84;100593.33;487393;112;379875;-72
2020/12/12 04:41:14;;;;;;;;;15.80;12.70;;;;;1.57;60.92;100591.37;483680;112;378101;-73
2020/12/12 04:42:18;;;;;;;;;16.70;14.00;;;;;1.61;60.94;100592.96;483350;113;377905;-73
2020/12/12 04:43:22;;;;;;;;;19.40;16.10;;;;;1.59;60.89;100590.42;483348;113;379402;-72
2020/12/12 04:44:26;;;;;;;;;18.80;14.30;;;;;1.59;60.89;100590.42;483254;113;381131;-74
2020/12/12 04:45:30;;;;;;;;;19.90;15.90;;;;;1.58;60.65;100590.47;483003;113;378544;-73
2020/12/12 04:46:37;;;;;;;;;14.60;14.30;;;;;1.57;60.59;100596.61;473953;115;384097;-71
2020/12/12 04:47:42;;;;;;;;;18.60;13.20;;;;;1.53;61.01;100597.66;474969;115;378935;-72
2020/12/12 04:48:46;;;;;;;;;17.90;16.90;;;;;1.49;61.15;100603.92;482736;113;380863;-72
2020/12/12 04:49:49;;;;;;;;;17.70;13.10;;;;;1.49;61.15;100603.92;483259;113;386014;-74
2020/12/12 04:50:54;;;;;;;;;22.60;17.80;;;;;1.53;61.36;100597.66;491128;111;382140;-72
2020/12/12 04:51:58;;;;;;;;;14.80;12.60;;;;;1.53;61.36;100597.66;491136;111;377633;-72